Terminal Aerodrome Forecast
Issued by NWS

Home | Current Version | Previous Version | Text Only | Print | Product List | Glossary On
Versions: 1 2 3 4 5 6 7 8 9 10 11 12 13
000
FTUS44 KJAN 162300
TAFHKS
TAF
KHKS 162339Z 1700/1724 01003KT P6SM FEW050 SCT100 BKN200
     FM171000 VRB03KT 5SM BR FEW010 SCT200
     FM171330 02005KT P6SM SCT040 SCT250=

USA.gov is the U.S. government's official web portal to all federal, state and local government web resources and services.